Casper, WY (82601)

6:48 AM MST on February 08, 2016 (GMT -0700)
Casper Mountain Foothills | | Change Station
CLOSE
Current Station
Personal Weather Station
Location: Casper, WY
Elevation: 5334 ft
Nearby Weather Stations

Elev 5334 ft 42.83 °N, 106.31 °W | Updated 3 minutes ago

Clear
Clear
32.7 °F
Feels Like 33 °F
N
3.0
Wind Variable Wind from West
Gusts 6.0 mph

Today
High -- | Low -- °F
--% Chance of Precip.
Yesterday
High -- | Low -- °F
Precip. -- in
Pressure 30.54 in
Visibility 10.0 miles
Clouds Clear
Windchill 33 °F
Dew Point 14 °F
Humidity 45%
Rainfall 0.00 in
Snow Depth Not available.
7:12 AM 5:27 PM
Waning Crescent, 0% visible
METAR KCPR 081253Z 24012KT 10SM CLR M04/M11 A3040 RMK AO2 SLP342 T10391111
Pressure 30.54 in
Visibility 10.0 miles
Clouds Clear
Windchill 33 °F
Dew Point 14 °F
Humidity 45%
Rainfall 0.00 in
Snow Depth Not available.
7:12 AM 5:27 PM
Waning Crescent, 0% visible
METAR KCPR 081253Z 24012KT 10SM CLR M04/M11 A3040 RMK AO2 SLP342 T10391111

10-Day Weather Forecast

Almanac

Astronomy

Feb. 08, 2016 Rise Set
Actual Time
Civil Twilight
Nautical Twilight
Astronomical Twilight
Moon
Length of Visible Light
Length of Day
Tomorrow will be .
, % of the Moon is Illuminated

Today's Extremes

State Highs State Lows

Community

WunderPhotos

Upload Photos

1,891,437 photos uploaded!

WunderBlog® & News

Nearby

Air Quality

  Air Quality AQ Index Pollutant
Not available.

Snow Depth

Station Depth Elevation

Earthquake Activity

City Distance Mag. Time & Date
Minimum magnitude displayed is 2.5.

Coastal Water Temperatures

Place Temperature

Stations

Nearby Weather Stations

Station Location Temp. Windchill Dew Point Humidity Wind Precip. Elev Updated Type
                   

Watches & Warnings

There are currently no watches in effect.